sensor_id;sensor_type;location;lat;lon;timestamp;pressure;altitude;pressure_sealevel;temperature;humidity
78986;BME280;68384;55.750;48.746;2023-09-08T00:00:08;98740.97;;;6.92;86.44
78986;BME280;68384;55.750;48.746;2023-09-08T00:02:36;98735.91;;;6.95;86.08
78986;BME280;68384;55.750;48.746;2023-09-08T00:05:03;98734.16;;;6.94;85.62
78986;BME280;68384;55.750;48.746;2023-09-08T00:07:31;98736.63;;;6.89;85.41
78986;BME280;68384;55.750;48.746;2023-09-08T00:09:58;98728.09;;;6.92;84.89
78986;BME280;68384;55.750;48.746;2023-09-08T00:12:25;98734.03;;;6.89;84.55
78986;BME280;68384;55.750;48.746;2023-09-08T00:14:53;98733.88;;;6.85;84.42
78986;BME280;68384;55.750;48.746;2023-09-08T00:17:20;98734.63;;;6.81;84.14
78986;BME280;68384;55.750;48.746;2023-09-08T00:19:47;98733.56;;;6.74;84.28
78986;BME280;68384;55.750;48.746;2023-09-08T00:22:14;98730.00;;;6.69;83.92
78986;BME280;68384;55.750;48.746;2023-09-08T00:24:42;98735.84;;;6.63;84.25
78986;BME280;68384;55.750;48.746;2023-09-08T00:27:09;98725.41;;;6.59;84.12
78986;BME280;68384;55.750;48.746;2023-09-08T00:29:37;98733.81;;;6.53;84.09
78986;BME280;68384;55.750;48.746;2023-09-08T00:32:04;98733.75;;;6.52;84.58
78986;BME280;68384;55.750;48.746;2023-09-08T00:34:31;98730.25;;;6.48;84.46
78986;BME280;68384;55.750;48.746;2023-09-08T00:36:59;98727.56;;;6.45;84.20
78986;BME280;68384;55.750;48.746;2023-09-08T00:39:31;98723.16;;;6.41;84.57
78986;BME280;68384;55.750;48.746;2023-09-08T00:41:59;98722.16;;;6.38;84.16
78986;BME280;68384;55.750;48.746;2023-09-08T00:44:26;98724.59;;;6.33;84.74
78986;BME280;68384;55.750;48.746;2023-09-08T00:46:53;98713.31;;;6.28;84.83
78986;BME280;68384;55.750;48.746;2023-09-08T00:49:20;98719.09;;;6.21;85.00
78986;BME280;68384;55.750;48.746;2023-09-08T00:51:48;98716.94;;;6.08;85.30
78986;BME280;68384;55.750;48.746;2023-09-08T00:54:16;98712.41;;;5.99;85.16
78986;BME280;68384;55.750;48.746;2023-09-08T00:56:44;98700.03;;;5.88;85.30
78986;BME280;68384;55.750;48.746;2023-09-08T00:59:12;98706.50;;;5.77;85.84
78986;BME280;68384;55.750;48.746;2023-09-08T01:01:40;98708.75;;;5.66;86.21
78986;BME280;68384;55.750;48.746;2023-09-08T01:04:07;98707.72;;;5.61;86.38
78986;BME280;68384;55.750;48.746;2023-09-08T01:06:35;98708.38;;;5.55;86.81
78986;BME280;68384;55.750;48.746;2023-09-08T01:09:03;98710.78;;;5.51;87.19
78986;BME280;68384;55.750;48.746;2023-09-08T01:11:31;98703.63;;;5.42;87.36
78986;BME280;68384;55.750;48.746;2023-09-08T01:13:59;98712.19;;;5.41;87.40
78986;BME280;68384;55.750;48.746;2023-09-08T01:16:26;98706.81;;;5.35;87.59
78986;BME280;68384;55.750;48.746;2023-09-08T01:18:54;98701.56;;;5.32;87.63
78986;BME280;68384;55.750;48.746;2023-09-08T01:24:28;98691.06;;;5.26;88.15
78986;BME280;68384;55.750;48.746;2023-09-08T01:26:57;98696.06;;;5.22;88.16
78986;BME280;68384;55.750;48.746;2023-09-08T01:29:26;98694.31;;;5.21;88.42
78986;BME280;68384;55.750;48.746;2023-09-08T01:31:55;98691.56;;;5.15;88.26
78986;BME280;68384;55.750;48.746;2023-09-08T01:34:25;98703.41;;;5.11;88.65
78986;BME280;68384;55.750;48.746;2023-09-08T01:36:53;98698.97;;;5.07;88.90
78986;BME280;68384;55.750;48.746;2023-09-08T01:39:20;98691.16;;;5.04;88.95
78986;BME280;68384;55.750;48.746;2023-09-08T01:41:47;98695.47;;;5.05;89.18
78986;BME280;68384;55.750;48.746;2023-09-08T01:44:15;98690.19;;;5.01;89.40
78986;BME280;68384;55.750;48.746;2023-09-08T01:46:42;98699.50;;;4.98;89.52
78986;BME280;68384;55.750;48.746;2023-09-08T01:49:09;98692.69;;;4.99;89.47
78986;BME280;68384;55.750;48.746;2023-09-08T01:51:37;98691.88;;;5.00;89.74
78986;BME280;68384;55.750;48.746;2023-09-08T01:54:04;98696.16;;;5.01;89.56
78986;BME280;68384;55.750;48.746;2023-09-08T01:56:31;98698.75;;;5.01;89.83
78986;BME280;68384;55.750;48.746;2023-09-08T01:58:58;98708.31;;;5.05;89.93
78986;BME280;68384;55.750;48.746;2023-09-08T02:01:26;98703.19;;;5.05;89.91
78986;BME280;68384;55.750;48.746;2023-09-08T02:03:54;98704.00;;;5.04;90.14
78986;BME280;68384;55.750;48.746;2023-09-08T02:06:21;98713.56;;;5.08;89.98
78986;BME280;68384;55.750;48.746;2023-09-08T02:08:48;98705.13;;;5.12;90.35
78986;BME280;68384;55.750;48.746;2023-09-08T02:11:15;98708.00;;;5.20;90.03
78986;BME280;68384;55.750;48.746;2023-09-08T02:13:43;98698.69;;;5.23;90.04
78986;BME280;68384;55.750;48.746;2023-09-08T02:16:14;98701.44;;;5.28;89.93
78986;BME280;68384;55.750;48.746;2023-09-08T02:18:43;98708.50;;;5.35;89.42
78986;BME280;68384;55.750;48.746;2023-09-08T02:21:10;98701.81;;;5.40;89.50
78986;BME280;68384;55.750;48.746;2023-09-08T02:23:38;98698.50;;;5.42;89.13
78986;BME280;68384;55.750;48.746;2023-09-08T02:26:06;98699.31;;;5.41;89.09
78986;BME280;68384;55.750;48.746;2023-09-08T02:28:34;98702.00;;;5.44;89.25
78986;BME280;68384;55.750;48.746;2023-09-08T02:31:01;98698.66;;;5.47;88.73
78986;BME280;68384;55.750;48.746;2023-09-08T02:33:29;98695.53;;;5.55;88.85
78986;BME280;68384;55.750;48.746;2023-09-08T02:36:03;98700.00;;;5.61;88.52
78986;BME280;68384;55.750;48.746;2023-09-08T02:38:32;98693.31;;;5.66;88.14
78986;BME280;68384;55.750;48.746;2023-09-08T02:41:01;98688.06;;;5.63;87.85
78986;BME280;68384;55.750;48.746;2023-09-08T02:43:29;98684.56;;;5.61;87.94
78986;BME280;68384;55.750;48.746;2023-09-08T02:45:57;98684.56;;;5.61;88.13
78986;BME280;68384;55.750;48.746;2023-09-08T02:48:25;98688.94;;;5.64;87.92
78986;BME280;68384;55.750;48.746;2023-09-08T02:50:52;98694.91;;;5.63;88.09
78986;BME280;68384;55.750;48.746;2023-09-08T02:53:21;98688.09;;;5.65;87.99
78986;BME280;68384;55.750;48.746;2023-09-08T02:55:49;98693.25;;;5.65;88.03
78986;BME280;68384;55.750;48.746;2023-09-08T02:58:16;98688.28;;;5.69;87.76
78986;BME280;68384;55.750;48.746;2023-09-08T03:00:43;98684.19;;;5.76;87.75
78986;BME280;68384;55.750;48.746;2023-09-08T03:03:10;98697.22;;;5.80;87.16
78986;BME280;68384;55.750;48.746;2023-09-08T03:05:38;98693.22;;;5.90;87.20
78986;BME280;68384;55.750;48.746;2023-09-08T03:08:05;98698.50;;;5.94;87.04
78986;BME280;68384;55.750;48.746;2023-09-08T03:10:33;98690.06;;;5.98;86.85
78986;BME280;68384;55.750;48.746;2023-09-08T03:13:05;98699.59;;;6.01;86.27
78986;BME280;68384;55.750;48.746;2023-09-08T03:15:34;98689.50;;;6.07;86.42
78986;BME280;68384;55.750;48.746;2023-09-08T03:18:01;98699.97;;;6.13;85.78
78986;BME280;68384;55.750;48.746;2023-09-08T03:20:29;98704.38;;;6.17;85.72
78986;BME280;68384;55.750;48.746;2023-09-08T03:22:56;98697.63;;;6.21;85.70
78986;BME280;68384;55.750;48.746;2023-09-08T03:25:23;98690.16;;;6.28;85.32
78986;BME280;68384;55.750;48.746;2023-09-08T03:27:50;98696.16;;;6.29;85.01
78986;BME280;68384;55.750;48.746;2023-09-08T03:30:18;98686.78;;;6.31;85.17
78986;BME280;68384;55.750;48.746;2023-09-08T03:32:45;98691.25;;;6.36;84.76
78986;BME280;68384;55.750;48.746;2023-09-08T03:35:13;98697.47;;;6.43;84.42
78986;BME280;68384;55.750;48.746;2023-09-08T03:37:41;98699.19;;;6.44;84.47
78986;BME280;68384;55.750;48.746;2023-09-08T03:40:09;98708.06;;;6.53;84.46
78986;BME280;68384;55.750;48.746;2023-09-08T03:42:36;98703.16;;;6.61;84.21
78986;BME280;68384;55.750;48.746;2023-09-08T03:45:04;98700.00;;;6.71;84.16
78986;BME280;68384;55.750;48.746;2023-09-08T03:47:31;98696.63;;;6.73;83.67
78986;BME280;68384;55.750;48.746;2023-09-08T03:49:59;98696.81;;;6.80;83.35
78986;BME280;68384;55.750;48.746;2023-09-08T03:52:26;98703.94;;;6.88;83.02
78986;BME280;68384;55.750;48.746;2023-09-08T03:54:54;98698.06;;;6.92;82.84
78986;BME280;68384;55.750;48.746;2023-09-08T03:57:21;98699.16;;;7.00;82.40
78986;BME280;68384;55.750;48.746;2023-09-08T03:59:48;98706.19;;;7.06;82.37
78986;BME280;68384;55.750;48.746;2023-09-08T04:02:16;98698.66;;;7.13;82.29
78986;BME280;68384;55.750;48.746;2023-09-08T04:04:43;98702.50;;;7.27;81.83
78986;BME280;68384;55.750;48.746;2023-09-08T04:07:10;98698.97;;;7.25;81.21
78986;BME280;68384;55.750;48.746;2023-09-08T04:09:38;98696.47;;;7.27;80.66
78986;BME280;68384;55.750;48.746;2023-09-08T04:12:05;98696.56;;;7.30;80.60
78986;BME280;68384;55.750;48.746;2023-09-08T04:14:35;98690.69;;;7.36;80.70
78986;BME280;68384;55.750;48.746;2023-09-08T04:17:03;98694.88;;;7.32;80.53
78986;BME280;68384;55.750;48.746;2023-09-08T04:19:31;98696.69;;;7.36;80.49
78986;BME280;68384;55.750;48.746;2023-09-08T04:21:58;98703.81;;;7.15;81.01
78986;BME280;68384;55.750;48.746;2023-09-08T04:24:26;98699.06;;;7.27;80.72
78986;BME280;68384;55.750;48.746;2023-09-08T04:26:53;98704.31;;;7.31;80.98
78986;BME280;68384;55.750;48.746;2023-09-08T04:29:20;98710.72;;;7.46;80.77
78986;BME280;68384;55.750;48.746;2023-09-08T04:31:48;98710.75;;;7.47;80.11
78986;BME280;68384;55.750;48.746;2023-09-08T04:34:15;98715.00;;;7.45;79.49
78986;BME280;68384;55.750;48.746;2023-09-08T04:36:42;98714.16;;;7.46;79.79
78986;BME280;68384;55.750;48.746;2023-09-08T04:39:10;98709.22;;;7.55;80.04
78986;BME280;68384;55.750;48.746;2023-09-08T04:41:38;98706.16;;;7.68;79.61
78986;BME280;68384;55.750;48.746;2023-09-08T04:44:06;98714.03;;;7.74;79.14
78986;BME280;68384;55.750;48.746;2023-09-08T04:46:35;98717.63;;;7.79;79.50
78986;BME280;68384;55.750;48.746;2023-09-08T04:49:02;98717.09;;;7.92;79.42
78986;BME280;68384;55.750;48.746;2023-09-08T04:51:29;98716.38;;;7.98;78.95
78986;BME280;68384;55.750;48.746;2023-09-08T04:53:57;98713.59;;;7.90;79.68
78986;BME280;68384;55.750;48.746;2023-09-08T04:56:24;98711.91;;;7.92;78.86
78986;BME280;68384;55.750;48.746;2023-09-08T04:58:51;98706.03;;;7.98;78.92
78986;BME280;68384;55.750;48.746;2023-09-08T05:01:19;98710.47;;;8.04;79.56
78986;BME280;68384;55.750;48.746;2023-09-08T05:03:47;98714.94;;;8.11;78.55
78986;BME280;68384;55.750;48.746;2023-09-08T05:06:15;98708.97;;;8.13;78.18
78986;BME280;68384;55.750;48.746;2023-09-08T05:08:42;98708.47;;;8.29;77.93
78986;BME280;68384;55.750;48.746;2023-09-08T05:11:11;98706.19;;;8.41;77.60
78986;BME280;68384;55.750;48.746;2023-09-08T05:13:38;98716.19;;;8.65;77.24
78986;BME280;68384;55.750;48.746;2023-09-08T05:16:06;98713.97;;;8.82;76.41
78986;BME280;68384;55.750;48.746;2023-09-08T05:18:45;98719.47;;;8.97;75.64
78986;BME280;68384;55.750;48.746;2023-09-08T05:21:12;98719.63;;;9.06;75.25
78986;BME280;68384;55.750;48.746;2023-09-08T05:23:41;98725.53;;;9.00;74.76
78986;BME280;68384;55.750;48.746;2023-09-08T05:26:10;98722.19;;;9.04;74.64
78986;BME280;68384;55.750;48.746;2023-09-08T05:28:37;98716.47;;;8.77;74.91
78986;BME280;68384;55.750;48.746;2023-09-08T05:31:06;98721.78;;;8.86;74.98
78986;BME280;68384;55.750;48.746;2023-09-08T05:33:34;98719.34;;;8.92;74.84
78986;BME280;68384;55.750;48.746;2023-09-08T05:36:02;98718.72;;;9.02;74.88
78986;BME280;68384;55.750;48.746;2023-09-08T05:38:29;98708.53;;;9.11;74.46
78986;BME280;68384;55.750;48.746;2023-09-08T05:40:57;98713.13;;;9.25;73.51
78986;BME280;68384;55.750;48.746;2023-09-08T05:43:25;98721.19;;;9.40;73.47
78986;BME280;68384;55.750;48.746;2023-09-08T05:45:54;98718.78;;;9.49;72.94
78986;BME280;68384;55.750;48.746;2023-09-08T05:48:21;98717.28;;;9.63;73.04
78986;BME280;68384;55.750;48.746;2023-09-08T05:50:48;98714.06;;;9.75;72.38
78986;BME280;68384;55.750;48.746;2023-09-08T05:53:16;98716.81;;;9.84;71.83
78986;BME280;68384;55.750;48.746;2023-09-08T05:55:44;98721.28;;;9.92;71.45
78986;BME280;68384;55.750;48.746;2023-09-08T05:58:11;98724.94;;;10.03;71.02
78986;BME280;68384;55.750;48.746;2023-09-08T06:00:38;98723.94;;;9.95;70.99
78986;BME280;68384;55.750;48.746;2023-09-08T06:03:05;98721.63;;;10.12;70.32
78986;BME280;68384;55.750;48.746;2023-09-08T06:05:33;98725.31;;;10.27;69.74
78986;BME280;68384;55.750;48.746;2023-09-08T06:08:01;98722.94;;;10.43;70.08
78986;BME280;68384;55.750;48.746;2023-09-08T06:10:38;98724.91;;;10.59;69.49
78986;BME280;68384;55.750;48.746;2023-09-08T06:13:07;98725.94;;;10.70;68.41
78986;BME280;68384;55.750;48.746;2023-09-08T06:15:36;98719.03;;;10.69;67.92
78986;BME280;68384;55.750;48.746;2023-09-08T06:18:04;98717.16;;;10.62;67.67
78986;BME280;68384;55.750;48.746;2023-09-08T06:20:32;98724.22;;;10.69;67.60
78986;BME280;68384;55.750;48.746;2023-09-08T06:23:01;98721.75;;;10.78;67.16
78986;BME280;68384;55.750;48.746;2023-09-08T06:25:29;98717.63;;;10.92;67.40
78986;BME280;68384;55.750;48.746;2023-09-08T06:27:56;98714.34;;;11.08;67.09
78986;BME280;68384;55.750;48.746;2023-09-08T06:30:25;98717.97;;;11.21;66.49
78986;BME280;68384;55.750;48.746;2023-09-08T06:32:54;98712.91;;;11.31;65.98
78986;BME280;68384;55.750;48.746;2023-09-08T06:35:22;98720.00;;;11.47;66.17
78986;BME280;68384;55.750;48.746;2023-09-08T06:37:50;98702.69;;;11.45;65.79
78986;BME280;68384;55.750;48.746;2023-09-08T06:40:17;98714.81;;;11.47;65.85
78986;BME280;68384;55.750;48.746;2023-09-08T06:42:46;98701.09;;;11.59;66.13
78986;BME280;68384;55.750;48.746;2023-09-08T06:45:24;98709.00;;;11.71;64.83
78986;BME280;68384;55.750;48.746;2023-09-08T06:47:52;98710.78;;;11.77;65.41
78986;BME280;68384;55.750;48.746;2023-09-08T06:50:23;98709.19;;;11.92;65.22
78986;BME280;68384;55.750;48.746;2023-09-08T06:52:52;98714.44;;;11.98;64.38
78986;BME280;68384;55.750;48.746;2023-09-08T06:55:19;98710.97;;;12.01;63.82
78986;BME280;68384;55.750;48.746;2023-09-08T06:57:47;98715.44;;;12.08;nan
78986;BME280;68384;55.750;48.746;2023-09-08T07:00:15;98718.06;;;12.17;63.68
78986;BME280;68384;55.750;48.746;2023-09-08T07:02:44;98719.88;;;12.24;63.21
78986;BME280;68384;55.750;48.746;2023-09-08T07:05:12;98720.88;;;12.41;61.99
78986;BME280;68384;55.750;48.746;2023-09-08T07:07:40;98725.28;;;12.54;62.35
78986;BME280;68384;55.750;48.746;2023-09-08T07:10:08;98724.53;;;12.72;61.59
78986;BME280;68384;55.750;48.746;2023-09-08T07:12:36;98725.47;;;12.85;60.80
78986;BME280;68384;55.750;48.746;2023-09-08T07:15:04;98718.63;;;12.99;60.19
78986;BME280;68384;55.750;48.746;2023-09-08T07:17:32;98723.88;;;13.14;60.14
78986;BME280;68384;55.750;48.746;2023-09-08T07:20:00;98723.91;;;13.23;57.80
78986;BME280;68384;55.750;48.746;2023-09-08T07:22:30;98724.78;;;13.22;58.24
78986;BME280;68384;55.750;48.746;2023-09-08T07:24:57;98722.97;;;13.10;59.60
78986;BME280;68384;55.750;48.746;2023-09-08T07:27:25;98724.69;;;13.01;59.11
78986;BME280;68384;55.750;48.746;2023-09-08T07:29:53;98728.19;;;13.09;58.57
78986;BME280;68384;55.750;48.746;2023-09-08T07:32:20;98728.19;;;13.10;59.01
78986;BME280;68384;55.750;48.746;2023-09-08T07:34:50;98730.84;;;13.22;58.42
78986;BME280;68384;55.750;48.746;2023-09-08T07:37:24;98728.34;;;13.41;57.61
78986;BME280;68384;55.750;48.746;2023-09-08T07:39:52;98717.97;;;13.54;56.91
78986;BME280;68384;55.750;48.746;2023-09-08T07:42:19;98731.00;;;13.68;56.62
78986;BME280;68384;55.750;48.746;2023-09-08T07:44:47;98733.63;;;13.81;55.92
78986;BME280;68384;55.750;48.746;2023-09-08T07:47:15;98731.91;;;13.93;55.33
78986;BME280;68384;55.750;48.746;2023-09-08T07:49:45;98733.69;;;14.00;54.51
78986;BME280;68384;55.750;48.746;2023-09-08T07:52:14;98729.31;;;14.03;54.61
78986;BME280;68384;55.750;48.746;2023-09-08T07:54:42;98731.06;;;13.86;55.72
78986;BME280;68384;55.750;48.746;2023-09-08T07:57:10;98737.13;;;13.82;56.62
78986;BME280;68384;55.750;48.746;2023-09-08T07:59:37;98732.72;;;13.57;55.99
78986;BME280;68384;55.750;48.746;2023-09-08T08:02:05;98731.72;;;13.23;57.48
78986;BME280;68384;55.750;48.746;2023-09-08T08:04:33;98733.44;;;13.24;57.77
78986;BME280;68384;55.750;48.746;2023-09-08T08:07:01;98723.03;;;13.15;57.26
78986;BME280;68384;55.750;48.746;2023-09-08T08:09:29;98730.88;;;13.29;57.68
78986;BME280;68384;55.750;48.746;2023-09-08T08:11:57;98734.41;;;13.37;56.68
78986;BME280;68384;55.750;48.746;2023-09-08T08:14:24;98731.84;;;13.50;56.52
78986;BME280;68384;55.750;48.746;2023-09-08T08:16:52;98724.06;;;13.61;55.98
78986;BME280;68384;55.750;48.746;2023-09-08T08:19:19;98724.97;;;13.72;54.91
78986;BME280;68384;55.750;48.746;2023-09-08T08:21:47;98725.81;;;13.81;54.52
78986;BME280;68384;55.750;48.746;2023-09-08T08:24:15;98724.97;;;13.82;53.85
78986;BME280;68384;55.750;48.746;2023-09-08T08:26:43;98724.09;;;13.85;53.42
78986;BME280;68384;55.750;48.746;2023-09-08T08:29:11;98718.88;;;13.85;52.99
78986;BME280;68384;55.750;48.746;2023-09-08T08:31:38;98722.34;;;13.81;52.10
78986;BME280;68384;55.750;48.746;2023-09-08T08:34:06;98726.69;;;13.79;50.29
78986;BME280;68384;55.750;48.746;2023-09-08T08:36:33;98723.22;;;13.77;51.10
78986;BME280;68384;55.750;48.746;2023-09-08T08:39:01;98727.56;;;13.78;51.96
78986;BME280;68384;55.750;48.746;2023-09-08T08:41:29;98725.84;;;13.83;52.47
78986;BME280;68384;55.750;48.746;2023-09-08T08:43:58;98726.69;;;13.87;52.15
78986;BME280;68384;55.750;48.746;2023-09-08T08:46:26;98729.31;;;13.90;51.73
78986;BME280;68384;55.750;48.746;2023-09-08T08:48:54;98723.22;;;13.81;52.01
78986;BME280;68384;55.750;48.746;2023-09-08T08:51:23;98730.19;;;13.82;52.34
78986;BME280;68384;55.750;48.746;2023-09-08T08:53:52;98725.84;;;13.80;52.58
78986;BME280;68384;55.750;48.746;2023-09-08T08:56:20;98732.75;;;13.81;52.13
78986;BME280;68384;55.750;48.746;2023-09-08T08:58:48;98733.66;;;13.83;52.48
78986;BME280;68384;55.750;48.746;2023-09-08T09:01:17;98734.53;;;13.85;52.73
78986;BME280;68384;55.750;48.746;2023-09-08T09:03:49;98737.97;;;13.81;51.40
78986;BME280;68384;55.750;48.746;2023-09-08T09:06:19;98731.03;;;13.81;52.63
78986;BME280;68384;55.750;48.746;2023-09-08T09:08:47;98731.00;;;13.75;52.76
78986;BME280;68384;55.750;48.746;2023-09-08T09:11:16;98726.69;;;13.74;52.18
78986;BME280;68384;55.750;48.746;2023-09-08T09:13:44;98716.25;;;13.71;51.25
78986;BME280;68384;55.750;48.746;2023-09-08T09:16:11;98723.22;;;13.72;51.58
78986;BME280;68384;55.750;48.746;2023-09-08T09:19:21;98724.06;;;13.68;50.45
78986;BME280;68384;55.750;48.746;2023-09-08T09:21:55;98727.53;;;13.58;50.73
78986;BME280;68384;55.750;48.746;2023-09-08T09:24:38;98730.13;;;13.52;50.28
78986;BME280;68384;55.750;48.746;2023-09-08T09:27:13;98725.78;;;13.54;50.29
78986;BME280;68384;55.750;48.746;2023-09-08T09:29:48;98724.03;;;13.55;50.21
78986;BME280;68384;55.750;48.746;2023-09-08T09:32:23;98729.22;;;13.46;50.29
78986;BME280;68384;55.750;48.746;2023-09-08T09:34:52;98732.56;;;13.14;51.12
78986;BME280;68384;55.750;48.746;2023-09-08T09:37:24;98720.47;;;13.30;51.59
78986;BME280;68384;55.750;48.746;2023-09-08T09:39:53;98728.34;;;13.48;51.61
78986;BME280;68384;55.750;48.746;2023-09-08T09:42:21;98719.72;;;13.63;50.14
78986;BME280;68384;55.750;48.746;2023-09-08T09:44:51;98725.78;;;13.62;46.69
78986;BME280;68384;55.750;48.746;2023-09-08T09:47:19;98729.28;;;13.61;47.42
78986;BME280;68384;55.750;48.746;2023-09-08T09:49:48;98730.13;;;13.63;46.88
78986;BME280;68384;55.750;48.746;2023-09-08T09:52:23;98725.78;;;13.56;46.26
78986;BME280;68384;55.750;48.746;2023-09-08T09:54:53;98737.06;;;13.59;46.32
78986;BME280;68384;55.750;48.746;2023-09-08T09:57:22;98731.88;;;13.65;45.92
78986;BME280;68384;55.750;48.746;2023-09-08T09:59:51;98732.75;;;13.69;46.02
78986;BME280;68384;55.750;48.746;2023-09-08T10:02:20;98738.84;;;13.75;45.11
78986;BME280;68384;55.750;48.746;2023-09-08T10:04:50;98744.06;;;13.88;43.91
78986;BME280;68384;55.750;48.746;2023-09-08T10:07:18;98738.84;;;13.84;44.43
78986;BME280;68384;55.750;48.746;2023-09-08T10:09:47;98744.06;;;13.84;45.18
78986;BME280;68384;55.750;48.746;2023-09-08T10:12:15;98743.22;;;13.96;45.69
78986;BME280;68384;55.750;48.746;2023-09-08T10:14:45;98744.94;;;14.03;44.02
78986;BME280;68384;55.750;48.746;2023-09-08T10:17:19;98744.09;;;14.12;44.15
78986;BME280;68384;55.750;48.746;2023-09-08T10:19:54;98751.06;;;14.17;44.10
78986;BME280;68384;55.750;48.746;2023-09-08T10:22:29;98748.44;;;14.17;43.24
78986;BME280;68384;55.750;48.746;2023-09-08T10:25:02;98755.41;;;14.23;43.38
78986;BME280;68384;55.750;48.746;2023-09-08T10:27:31;98758.88;;;14.19;43.79
78986;BME280;68384;55.750;48.746;2023-09-08T10:30:04;98759.75;;;14.24;43.60
78986;BME280;68384;55.750;48.746;2023-09-08T10:32:33;98759.75;;;14.24;42.76
78986;BME280;68384;55.750;48.746;2023-09-08T10:35:03;98769.28;;;14.08;44.44
78986;BME280;68384;55.750;48.746;2023-09-08T10:37:31;98760.59;;;14.12;44.78
78986;BME280;68384;55.750;48.746;2023-09-08T10:40:25;98764.94;;;14.16;45.89
78986;BME280;68384;55.750;48.746;2023-09-08T10:43:08;98758.88;;;14.17;46.10
78986;BME280;68384;55.750;48.746;2023-09-08T10:45:35;98758.88;;;14.14;45.80
78986;BME280;68384;55.750;48.746;2023-09-08T10:48:03;98767.53;;;14.16;46.51
78986;BME280;68384;55.750;48.746;2023-09-08T10:50:34;98762.34;;;14.12;46.38
78986;BME280;68384;55.750;48.746;2023-09-08T10:53:12;98766.69;;;14.20;45.95
78986;BME280;68384;55.750;48.746;2023-09-08T10:55:41;98767.56;;;14.24;45.38
78986;BME280;68384;55.750;48.746;2023-09-08T10:58:34;98767.56;;;14.21;44.00
78986;BME280;68384;55.750;48.746;2023-09-08T11:01:06;98771.03;;;14.29;45.04
78986;BME280;68384;55.750;48.746;2023-09-08T11:06:05;98771.03;;;14.20;45.51
78986;BME280;68384;55.750;48.746;2023-09-08T11:08:34;98770.16;;;14.25;45.79
78986;BME280;68384;55.750;48.746;2023-09-08T11:11:03;98779.72;;;14.38;45.23
78986;BME280;68384;55.750;48.746;2023-09-08T11:13:30;98783.22;;;14.40;45.22
78986;BME280;68384;55.750;48.746;2023-09-08T11:15:58;98788.44;;;14.43;45.62
78986;BME280;68384;55.750;48.746;2023-09-08T11:18:29;98788.44;;;14.47;44.92
78986;BME280;68384;55.750;48.746;2023-09-08T11:20:58;98784.97;;;14.51;44.81
78986;BME280;68384;55.750;48.746;2023-09-08T11:23:26;98780.63;;;14.56;46.17
78986;BME280;68384;55.750;48.746;2023-09-08T11:25:53;98780.63;;;14.43;48.13
78986;BME280;68384;55.750;48.746;2023-09-08T11:28:21;98777.09;;;14.07;49.12
78986;BME280;68384;55.750;48.746;2023-09-08T11:30:50;98781.44;;;13.96;49.93
78986;BME280;68384;55.750;48.746;2023-09-08T11:33:19;98772.69;;;13.71;49.47
78986;BME280;68384;55.750;48.746;2023-09-08T11:35:54;98783.91;;;13.44;50.40
78986;BME280;68384;55.750;48.746;2023-09-08T11:38:26;98777.84;;;13.45;50.75
78986;BME280;68384;55.750;48.746;2023-09-08T11:40:55;98783.88;;;13.38;51.58
78986;BME280;68384;55.750;48.746;2023-09-08T11:43:27;98795.19;;;13.45;50.95
78986;BME280;68384;55.750;48.746;2023-09-08T11:45:55;98783.88;;;13.46;51.06
78986;BME280;68384;55.750;48.746;2023-09-08T11:48:24;98791.72;;;13.52;50.84
78986;BME280;68384;55.750;48.746;2023-09-08T11:50:55;98791.78;;;13.65;50.32
78986;BME280;68384;55.750;48.746;2023-09-08T11:53:23;98786.59;;;13.76;50.27
78986;BME280;68384;55.750;48.746;2023-09-08T11:55:50;98790.09;;;13.84;48.83
78986;BME280;68384;55.750;48.746;2023-09-08T11:58:19;98799.66;;;13.80;48.87
78986;BME280;68384;55.750;48.746;2023-09-08T12:00:48;98803.09;;;13.81;48.40
78986;BME280;68384;55.750;48.746;2023-09-08T12:03:19;98804.84;;;13.74;48.27
78986;BME280;68384;55.750;48.746;2023-09-08T12:05:51;98803.94;;;13.71;48.20
78986;BME280;68384;55.750;48.746;2023-09-08T12:08:19;98801.34;;;13.75;48.23
78986;BME280;68384;55.750;48.746;2023-09-08T12:10:47;98797.91;;;13.79;48.21
78986;BME280;68384;55.750;48.746;2023-09-08T12:13:20;98803.97;;;13.84;47.53
78986;BME280;68384;55.750;48.746;2023-09-08T12:15:48;98796.19;;;13.88;47.98
78986;BME280;68384;55.750;48.746;2023-09-08T12:18:15;98803.13;;;13.86;47.61
78986;BME280;68384;55.750;48.746;2023-09-08T12:20:44;98803.09;;;13.79;47.92
78986;BME280;68384;55.750;48.746;2023-09-08T12:23:18;98800.50;;;13.76;47.90
78986;BME280;68384;55.750;48.746;2023-09-08T12:25:50;98795.28;;;13.75;47.83
78986;BME280;68384;55.750;48.746;2023-09-08T12:28:21;98810.91;;;13.73;47.49
78986;BME280;68384;55.750;48.746;2023-09-08T12:30:50;98802.22;;;13.67;47.96
78986;BME280;68384;55.750;48.746;2023-09-08T12:33:17;98800.44;;;13.67;48.21
78986;BME280;68384;55.750;48.746;2023-09-08T12:35:48;98802.22;;;13.71;48.10
78986;BME280;68384;55.750;48.746;2023-09-08T12:38:18;98801.38;;;13.72;48.05
78986;BME280;68384;55.750;48.746;2023-09-08T12:40:46;98799.63;;;13.74;47.42
78986;BME280;68384;55.750;48.746;2023-09-08T12:43:13;98806.59;;;13.89;47.51
78986;BME280;68384;55.750;48.746;2023-09-08T12:45:57;98799.63;;;13.83;47.62
78986;BME280;68384;55.750;48.746;2023-09-08T12:48:25;98810.06;;;13.85;47.72
78986;BME280;68384;55.750;48.746;2023-09-08T12:50:52;98810.06;;;13.85;47.41
78986;BME280;68384;55.750;48.746;2023-09-08T12:53:19;98810.06;;;13.87;47.94
78986;BME280;68384;55.750;48.746;2023-09-08T12:55:47;98802.28;;;13.93;47.79
78986;BME280;68384;55.750;48.746;2023-09-08T12:58:15;98812.69;;;13.96;47.74
78986;BME280;68384;55.750;48.746;2023-09-08T13:00:44;98811.84;;;14.00;48.22
78986;BME280;68384;55.750;48.746;2023-09-08T13:03:11;98814.44;;;13.95;47.53
78986;BME280;68384;55.750;48.746;2023-09-08T13:05:39;98813.56;;;13.86;46.86
78986;BME280;68384;55.750;48.746;2023-09-08T13:08:07;98817.88;;;13.85;47.75